CheckWX is a tool to help pilots better visualize weather data.  It is not intended as a substitute for an official pre-flight weather briefing.

12:19:37 UTC

LTAR METAR
Sivas Airport
Sivas, Turkey
Current

30 mins ago

LTAR 311150Z 14011KT 100V160 9999 FEW030CB BKN035 09/M01 Q1012
Observed
Mar-31 @ 11:50 UTC
Wind
  • 140° at 11 KTS
Visibility
10,000+ meters
Flight Rules
VFR
Cloud Levels
  • Few at 3,000' AGL
  • Broken at 3,500' AGL
Temperature
C / 48°F
Dewpoint
-1°C / 30°F
Humidity
50%
Altimeter
29.88" Hg
Pressure
1011.92 hPa
Previous

1 hour ago

LTAR 311050Z 14009KT 9999 BKN035 08/M01 Q1013
Observed
Mar-31 @ 10:50 UTC
Wind
  • 140° at 9 KTS
Visibility
10,000+ meters
Flight Rules
VFR
Cloud Levels
  • Broken at 3,500' AGL
Temperature
C / 46°F
Dewpoint
-1°C / 30°F
Humidity
53%
Altimeter
29.91" Hg
Pressure
1012.92 hPa
Previous

2 hours ago

LTAR 310950Z 14010KT 110V170 9999 BKN035 08/00 Q1013
Observed
Mar-31 @ 09:50 UTC
Wind
  • 140° at 10 KTS
Visibility
10,000+ meters
Flight Rules
VFR
Cloud Levels
  • Broken at 3,500' AGL
Temperature
C / 46°F
Dewpoint
C / 32°F
Humidity
57%
Altimeter
29.91" Hg
Pressure
1012.92 hPa